createdAt,value
2023-03-02T00:02:21.417Z,55.10
2023-03-02T00:05:24.578Z,56.17
2023-03-02T00:08:28.724Z,58.67
2023-03-02T00:11:32.323Z,55.60
2023-03-02T00:14:34.334Z,55.90
2023-03-02T00:17:37.414Z,54.97
2023-03-02T00:20:39.427Z,51.42
2023-03-02T00:23:41.549Z,53.10
2023-03-02T00:26:43.670Z,60.85
2023-03-02T00:29:46.295Z,48.22
2023-03-02T00:32:49.252Z,57.13
2023-03-02T00:35:51.784Z,54.92
2023-03-02T00:38:53.911Z,58.35
2023-03-02T00:41:58.222Z,59.63
2023-03-02T00:45:02.256Z,50.45
2023-03-02T00:48:05.727Z,43.63
2023-03-02T00:51:08.550Z,56.25
2023-03-02T00:54:10.786Z,54.17
2023-03-02T00:57:13.089Z,52.65
2023-03-02T01:00:16.875Z,53.90
2023-03-02T01:03:22.257Z,54.13
2023-03-02T01:06:24.392Z,50.67
2023-03-02T01:09:26.585Z,56.00
2023-03-02T01:12:28.630Z,52.70
2023-03-02T01:15:30.803Z,49.13
2023-03-02T01:18:36.272Z,51.38
2023-03-02T01:21:38.309Z,51.58
2023-03-02T01:24:40.739Z,51.83
2023-03-02T01:27:43.153Z,51.08
2023-03-02T01:30:45.246Z,49.60
2023-03-02T01:33:47.221Z,45.80
2023-03-02T01:36:49.347Z,45.05
2023-03-02T01:39:53.014Z,51.45
2023-03-02T01:43:02.558Z,47.72
2023-03-02T01:46:13.080Z,47.83
2023-03-02T01:49:20.645Z,48.15
2023-03-02T01:52:35.184Z,55.03
2023-03-02T01:55:39.802Z,44.30
2023-03-02T01:58:42.681Z,44.85
2023-03-02T02:01:50.653Z,47.00
2023-03-02T02:04:54.903Z,41.53
2023-03-02T02:07:57.096Z,40.92
2023-03-02T02:11:01.370Z,48.58
2023-03-02T02:14:04.168Z,40.42
2023-03-02T02:17:06.268Z,44.20
2023-03-02T02:20:45.103Z,46.33
2023-03-02T02:23:57.517Z,42.67
2023-03-02T02:27:00.385Z,38.90
2023-03-02T02:30:06.490Z,42.20
2023-03-02T02:33:16.579Z,37.72
2023-03-02T02:36:34.575Z,41.85
2023-03-02T02:39:46.358Z,47.40
2023-03-02T02:42:52.936Z,48.50
2023-03-02T02:46:00.715Z,44.00
2023-03-02T02:49:04.558Z,45.97
2023-03-02T02:52:07.418Z,41.65
2023-03-02T02:55:16.248Z,45.75
2023-03-02T02:58:33.147Z,42.47
2023-03-02T03:01:35.930Z,42.22
2023-03-02T03:04:38.423Z,42.33
2023-03-02T03:07:43.488Z,40.92
2023-03-02T03:10:45.994Z,41.55
2023-03-02T03:13:48.187Z,45.70
2023-03-02T03:16:51.105Z,44.15
2023-03-02T03:19:53.472Z,40.78
2023-03-02T03:22:55.797Z,39.95
2023-03-02T03:25:57.918Z,45.53
2023-03-02T03:29:00.296Z,48.40
2023-03-02T03:32:05.081Z,55.17
2023-03-02T03:35:12.768Z,51.85
2023-03-02T03:38:14.962Z,46.65
2023-03-02T03:41:18.116Z,46.85
2023-03-02T03:44:20.505Z,48.05
2023-03-02T03:47:23.711Z,49.13
2023-03-02T03:50:27.256Z,39.05
2023-03-02T03:53:29.462Z,43.75
2023-03-02T03:56:37.853Z,45.40
2023-03-02T03:59:40.025Z,45.35
2023-03-02T04:02:42.532Z,46.33
2023-03-02T04:05:47.485Z,48.63
2023-03-02T04:08:50.243Z,46.08
2023-03-02T04:11:55.108Z,43.22
2023-03-02T04:14:57.559Z,48.83
2023-03-02T04:18:01.438Z,40.58
2023-03-02T04:21:03.947Z,45.17
2023-03-02T04:24:08.952Z,45.53
2023-03-02T04:27:11.902Z,46.00
2023-03-02T04:30:16.210Z,54.78
2023-03-02T04:33:18.225Z,41.15
2023-03-02T04:36:20.561Z,39.53
2023-03-02T04:39:24.325Z,43.97
2023-03-02T04:42:27.633Z,45.60
2023-03-02T04:45:33.422Z,41.70
2023-03-02T04:48:35.528Z,52.20
2023-03-02T04:51:40.774Z,43.05
2023-03-02T04:54:42.900Z,43.25
2023-03-02T04:57:45.323Z,49.25
2023-03-02T05:00:47.382Z,43.55
2023-03-02T05:03:49.763Z,45.45
2023-03-02T05:06:52.279Z,46.38
2023-03-02T05:09:54.292Z,45.97
2023-03-02T05:13:02.526Z,56.08
2023-03-02T05:16:05.105Z,45.17
2023-03-02T05:19:08.797Z,46.65
2023-03-02T05:22:10.878Z,46.67
2023-03-02T05:25:13.167Z,39.13
2023-03-02T05:28:15.191Z,48.88
2023-03-02T05:31:29.387Z,43.00
2023-03-02T05:34:31.484Z,41.30
2023-03-02T05:37:34.919Z,32.17
2023-03-02T05:40:36.968Z,46.78
2023-03-02T05:43:39.266Z,43.92
2023-03-02T05:46:41.797Z,38.17
2023-03-02T05:49:44.218Z,36.05
2023-03-02T05:52:46.849Z,45.28
2023-03-02T05:55:49.280Z,40.03
2023-03-02T05:58:51.510Z,40.47
2023-03-02T06:01:59.126Z,46.58
2023-03-02T06:05:01.634Z,38.40
2023-03-02T06:08:06.555Z,39.90
2023-03-02T06:11:09.175Z,40.83
2023-03-02T06:14:11.223Z,45.10
2023-03-02T06:17:13.978Z,49.28
2023-03-02T06:20:16.746Z,36.65
2023-03-02T06:23:19.086Z,40.83
2023-03-02T06:26:21.125Z,43.13
2023-03-02T06:29:23.276Z,36.08
2023-03-02T06:32:25.256Z,42.78
2023-03-02T06:35:27.518Z,49.88
2023-03-02T06:38:29.643Z,38.67
2023-03-02T06:41:33.919Z,46.75
2023-03-02T06:44:36.219Z,37.33
2023-03-02T06:47:38.729Z,40.80
2023-03-02T06:50:40.754Z,37.92
2023-03-02T06:53:42.985Z,36.50
2023-03-02T06:56:45.007Z,36.50
2023-03-02T06:59:47.005Z,34.92
2023-03-02T07:02:51.408Z,35.72
2023-03-02T07:05:54.278Z,35.35
2023-03-02T07:08:58.691Z,27.88
2023-03-02T07:12:01.030Z,37.00
2023-03-02T07:15:04.059Z,34.47
2023-03-02T07:18:06.394Z,36.20
2023-03-02T07:21:08.621Z,39.33
2023-03-02T07:24:10.626Z,37.55
2023-03-02T07:27:12.784Z,42.28
2023-03-02T07:30:15.409Z,34.88
2023-03-02T07:33:17.480Z,36.25
2023-03-02T07:36:19.853Z,36.30
2023-03-02T07:39:22.103Z,40.38
2023-03-02T07:42:24.136Z,35.38
2023-03-02T07:45:30.969Z,35.15
2023-03-02T07:48:33.879Z,36.90
2023-03-02T07:51:36.024Z,43.95
2023-03-02T07:54:38.062Z,34.17
2023-03-02T07:57:40.823Z,41.45
2023-03-02T08:00:42.848Z,39.35
2023-03-02T08:03:44.978Z,41.00
2023-03-02T08:06:47.260Z,38.30
2023-03-02T08:09:49.259Z,34.33
2023-03-02T08:12:51.340Z,33.65
2023-03-02T08:16:00.698Z,36.10
2023-03-02T08:19:02.883Z,30.65
2023-03-02T08:22:05.147Z,28.63
2023-03-02T08:25:07.604Z,23.13
2023-03-02T08:28:09.684Z,19.88
2023-03-02T08:31:13.097Z,20.35
2023-03-02T08:34:17.624Z,19.63
2023-03-02T08:37:19.988Z,18.27
2023-03-02T08:40:21.997Z,25.17
2023-03-02T08:43:25.642Z,19.60
2023-03-02T08:46:28.073Z,16.40
2023-03-02T08:49:30.111Z,25.23
2023-03-02T08:52:34.567Z,20.90
2023-03-02T08:55:37.097Z,19.38
2023-03-02T08:58:39.033Z,23.52
2023-03-02T09:01:41.809Z,18.42
2023-03-02T09:04:44.131Z,17.88
2023-03-02T09:07:46.224Z,18.88
2023-03-02T09:10:48.298Z,26.17
2023-03-02T09:13:51.411Z,19.80
2023-03-02T09:16:54.046Z,15.82
2023-03-02T09:19:56.230Z,23.73
2023-03-02T09:22:58.311Z,21.52
2023-03-02T09:26:01.452Z,18.30
2023-03-02T09:29:03.539Z,22.40
2023-03-02T09:32:05.715Z,19.63
2023-03-02T09:35:08.266Z,24.48
2023-03-02T09:38:16.122Z,20.63
2023-03-02T09:41:18.290Z,30.90
2023-03-02T09:44:52.791Z,18.30
2023-03-02T09:48:06.689Z,29.98
2023-03-02T09:51:31.889Z,21.98
2023-03-02T09:54:35.239Z,14.68
2023-03-02T09:57:40.047Z,15.35
2023-03-02T10:00:44.236Z,14.80
2023-03-02T10:03:56.527Z,12.63
2023-03-02T10:07:11.072Z,9.88
2023-03-02T10:10:36.144Z,9.50
2023-03-02T10:13:59.245Z,14.02
2023-03-02T10:17:36.106Z,11.15
2023-03-02T10:20:44.189Z,10.73
2023-03-02T10:23:57.384Z,15.15
2023-03-02T10:27:12.392Z,16.05
2023-03-02T10:30:20.288Z,17.20
2023-03-02T10:33:22.686Z,15.32
2023-03-02T10:36:28.555Z,20.13
2023-03-02T10:39:40.483Z,16.02
2023-03-02T10:42:42.677Z,24.48
2023-03-02T10:45:45.362Z,9.80
2023-03-02T10:49:01.442Z,12.38
2023-03-02T10:52:12.903Z,12.80
2023-03-02T10:55:15.779Z,7.22
2023-03-02T10:58:31.317Z,8.57
2023-03-02T11:01:33.354Z,7.90
2023-03-02T11:04:35.462Z,10.25
2023-03-02T11:07:37.552Z,12.70
2023-03-02T11:10:51.619Z,9.02
2023-03-02T11:13:56.041Z,8.57
2023-03-02T11:17:01.867Z,16.25
2023-03-02T11:20:13.792Z,7.32
2023-03-02T11:23:41.744Z,33.75
2023-03-02T11:26:54.634Z,6.80
2023-03-02T11:30:01.300Z,9.70
2023-03-02T11:33:19.932Z,10.70
2023-03-02T11:36:37.548Z,6.57
2023-03-02T11:39:57.638Z,8.93
2023-03-02T11:43:02.033Z,5.50
2023-03-02T11:46:16.964Z,8.25
2023-03-02T11:49:43.636Z,6.53
2023-03-02T11:53:01.261Z,9.93
2023-03-02T11:56:04.344Z,13.52
2023-03-02T11:59:15.048Z,10.32
2023-03-02T12:02:20.811Z,11.07
2023-03-02T12:05:29.135Z,12.30
2023-03-02T12:08:40.743Z,8.70
2023-03-02T12:11:55.137Z,12.73
2023-03-02T12:14:57.215Z,8.82
2023-03-02T12:18:02.927Z,15.05
2023-03-02T12:21:09.349Z,12.02
2023-03-02T12:24:29.633Z,8.98
2023-03-02T12:27:40.445Z,12.77
2023-03-02T12:30:42.785Z,11.25
2023-03-02T12:33:48.581Z,9.90
2023-03-02T12:36:56.151Z,8.18
2023-03-02T12:40:25.909Z,12.07
2023-03-02T12:43:33.382Z,20.23
2023-03-02T12:46:37.493Z,14.32
2023-03-02T12:49:50.302Z,9.50
2023-03-02T12:53:04.705Z,15.00
2023-03-02T12:56:09.123Z,9.85
2023-03-02T12:59:28.533Z,14.00
2023-03-02T13:02:34.601Z,10.23
2023-03-02T13:05:37.411Z,8.40
2023-03-02T13:08:40.317Z,7.38
2023-03-02T13:11:44.329Z,8.23
2023-03-02T13:14:52.400Z,11.05
2023-03-02T13:17:57.043Z,7.63
2023-03-02T13:21:00.808Z,8.05
2023-03-02T13:24:03.246Z,15.57
2023-03-02T13:27:08.213Z,12.13
2023-03-02T13:30:21.876Z,8.30
2023-03-02T13:33:25.509Z,13.57
2023-03-02T13:36:31.280Z,12.93
2023-03-02T13:39:33.466Z,10.73
2023-03-02T13:42:39.459Z,8.80
2023-03-02T13:45:52.781Z,13.07
2023-03-02T13:49:07.448Z,11.98
2023-03-02T13:52:30.547Z,8.05
2023-03-02T13:55:33.939Z,6.00
2023-03-02T13:58:38.951Z,11.52
2023-03-02T14:01:44.286Z,7.95
2023-03-02T14:04:46.587Z,8.25
2023-03-02T14:07:48.990Z,11.70
2023-03-02T14:10:54.015Z,11.15
2023-03-02T14:13:56.087Z,7.78
2023-03-02T14:16:58.262Z,6.57
2023-03-02T14:20:00.659Z,12.50
2023-03-02T14:23:06.879Z,11.30
2023-03-02T14:26:19.423Z,8.30
2023-03-02T14:29:31.265Z,10.48
2023-03-02T14:32:33.357Z,11.70
2023-03-02T14:35:36.492Z,13.35
2023-03-02T14:38:38.660Z,7.60
2023-03-02T14:41:53.013Z,9.57
2023-03-02T14:44:56.029Z,10.52
2023-03-02T14:47:58.105Z,9.00
2023-03-02T14:51:04.217Z,24.60
2023-03-02T14:54:13.061Z,15.52
2023-03-02T14:57:25.254Z,7.57
2023-03-02T15:00:27.747Z,12.65
2023-03-02T15:03:30.018Z,12.55
2023-03-02T15:06:37.433Z,11.55
2023-03-02T15:09:45.776Z,6.88
2023-03-02T15:12:48.040Z,8.73
2023-03-02T15:15:50.346Z,9.43
2023-03-02T15:18:53.427Z,9.80
2023-03-02T15:21:56.436Z,14.45
2023-03-02T15:24:58.518Z,10.32
2023-03-02T15:28:00.471Z,7.28
2023-03-02T15:31:14.595Z,9.23
2023-03-02T15:34:16.832Z,8.88
2023-03-02T15:37:18.882Z,11.85
2023-03-02T15:40:20.783Z,12.15
2023-03-02T15:43:26.039Z,9.32
2023-03-02T15:46:28.250Z,10.43
2023-03-02T15:49:32.896Z,12.75
2023-03-02T15:52:35.089Z,13.68
2023-03-02T15:55:40.736Z,13.65
2023-03-02T15:58:49.811Z,13.80
2023-03-02T16:01:52.105Z,16.75
2023-03-02T16:04:54.558Z,14.45
2023-03-02T16:07:56.646Z,10.68
2023-03-02T16:11:03.519Z,8.93
2023-03-02T16:14:05.655Z,10.82
2023-03-02T16:17:07.734Z,11.25
2023-03-02T16:20:10.523Z,12.07
2023-03-02T16:23:12.764Z,11.18
2023-03-02T16:26:17.206Z,17.00
2023-03-02T16:29:19.210Z,14.32
2023-03-02T16:32:22.313Z,23.63
2023-03-02T16:35:24.530Z,34.20
2023-03-02T16:38:26.810Z,34.45
2023-03-02T16:41:28.969Z,53.35
2023-03-02T16:44:32.179Z,53.97
2023-03-02T16:47:34.262Z,58.15
2023-03-02T16:50:36.266Z,56.85
2023-03-02T16:53:40.836Z,51.25
2023-03-02T16:56:47.422Z,42.70
2023-03-02T16:59:52.178Z,40.50
2023-03-02T17:02:54.588Z,37.22
2023-03-02T17:05:56.620Z,47.47
2023-03-02T17:08:58.866Z,39.97
2023-03-02T17:12:00.924Z,35.58
2023-03-02T17:15:12.583Z,38.28
2023-03-02T17:18:15.534Z,31.15
2023-03-02T17:21:19.238Z,38.50
2023-03-02T17:24:21.317Z,40.78
2023-03-02T17:27:26.025Z,29.80
2023-03-02T17:30:28.369Z,34.28
2023-03-02T17:33:30.499Z,34.50
2023-03-02T17:36:35.024Z,40.70
2023-03-02T17:39:39.051Z,37.05
2023-03-02T17:43:31.068Z,56.17
2023-03-02T17:46:35.307Z,35.10
2023-03-02T17:49:43.748Z,61.17
2023-03-02T17:55:49.694Z,47.55
2023-03-02T17:59:15.052Z,51.40
2023-03-02T18:02:23.080Z,52.60
2023-03-02T18:05:25.810Z,75.65
2023-03-02T18:08:28.406Z,58.67
2023-03-02T18:11:30.595Z,62.10
2023-03-02T18:14:32.560Z,68.28
2023-03-02T18:17:34.589Z,77.57
2023-03-02T18:20:36.909Z,73.65
2023-03-02T18:23:40.952Z,65.85
2023-03-02T18:26:43.322Z,64.65
2023-03-02T18:29:45.344Z,64.45
2023-03-02T18:32:47.884Z,63.45
2023-03-02T18:35:49.995Z,63.97
2023-03-02T18:38:53.490Z,53.00
2023-03-02T18:41:55.854Z,73.72
2023-03-02T18:44:58.815Z,80.28
2023-03-02T18:48:01.502Z,75.00
2023-03-02T18:51:24.233Z,69.38
2023-03-02T18:54:26.305Z,75.00
2023-03-02T18:57:28.394Z,76.85
2023-03-02T19:00:30.783Z,79.22
2023-03-02T19:03:35.396Z,75.25
2023-03-02T19:06:37.563Z,71.65
2023-03-02T19:09:39.575Z,58.78
2023-03-02T19:12:44.204Z,70.40
2023-03-02T19:15:47.186Z,72.05
2023-03-02T19:18:50.797Z,84.93
2023-03-02T19:21:55.807Z,75.05
2023-03-02T19:24:59.220Z,90.20
2023-03-02T19:28:05.163Z,85.55
2023-03-02T19:31:12.896Z,87.60
2023-03-02T19:34:15.733Z,90.30
2023-03-02T19:37:18.001Z,101.97
2023-03-02T19:40:22.907Z,79.95
2023-03-02T19:43:26.131Z,80.60
2023-03-02T19:46:32.766Z,75.82
2023-03-02T19:49:45.645Z,75.05
2023-03-02T19:52:48.111Z,77.55
2023-03-02T19:55:51.804Z,80.53
2023-03-02T19:58:55.603Z,85.88
2023-03-02T20:01:59.625Z,80.13
2023-03-02T20:05:06.801Z,71.43
2023-03-02T20:08:12.043Z,78.30
2023-03-02T20:11:15.972Z,69.80
2023-03-02T20:14:32.870Z,71.45
2023-03-02T20:17:37.773Z,80.38
2023-03-02T20:20:41.915Z,70.10
2023-03-02T20:23:50.003Z,77.15
2023-03-02T20:26:55.123Z,79.45
2023-03-02T20:29:57.259Z,64.68
2023-03-02T20:33:06.373Z,69.95
2023-03-02T20:36:12.441Z,66.30
2023-03-02T20:39:28.808Z,74.05
2023-03-02T20:42:34.459Z,77.82
2023-03-02T20:45:36.516Z,75.13
2023-03-02T20:48:39.056Z,78.88
2023-03-02T20:51:43.374Z,78.38
2023-03-02T20:55:26.238Z,67.68
2023-03-02T20:58:41.713Z,71.43
2023-03-02T21:01:46.275Z,60.58
2023-03-02T21:04:48.446Z,74.35
2023-03-02T21:07:51.459Z,76.93
2023-03-02T21:10:53.528Z,80.85
2023-03-02T21:13:56.856Z,65.75
2023-03-02T21:17:00.343Z,70.93
2023-03-02T21:20:02.756Z,75.18
2023-03-02T21:23:05.516Z,73.90
2023-03-02T21:26:09.726Z,64.70
2023-03-02T21:29:13.312Z,67.60
2023-03-02T21:32:15.742Z,66.25
2023-03-02T21:35:20.457Z,62.67
2023-03-02T21:38:22.480Z,57.55
2023-03-02T21:41:24.785Z,68.65
2023-03-02T21:44:26.837Z,55.25
2023-03-02T21:47:28.964Z,64.53
2023-03-02T21:50:34.078Z,54.63
2023-03-02T21:53:36.689Z,55.75
2023-03-02T21:56:39.184Z,60.20
2023-03-02T21:59:41.177Z,54.00
2023-03-02T22:02:43.485Z,60.55
2023-03-02T22:05:45.670Z,60.45
2023-03-02T22:08:47.880Z,62.42
2023-03-02T22:11:50.693Z,54.75
2023-03-02T22:14:54.204Z,64.90
2023-03-02T22:17:56.762Z,59.80
2023-03-02T22:20:59.116Z,58.58
2023-03-02T22:24:26.269Z,62.03
2023-03-02T22:27:31.993Z,77.32
2023-03-02T22:30:34.028Z,70.43
2023-03-02T22:33:37.125Z,70.10
2023-03-02T22:36:39.219Z,63.35
2023-03-02T22:39:42.352Z,55.65
2023-03-02T22:42:44.589Z,61.47
2023-03-02T22:45:46.644Z,70.75
2023-03-02T22:48:50.860Z,66.10
2023-03-02T22:51:53.046Z,65.60
2023-03-02T22:54:55.319Z,70.20
2023-03-02T22:57:59.782Z,67.50
2023-03-02T23:01:03.290Z,60.08
2023-03-02T23:04:08.421Z,58.30
2023-03-02T23:07:19.512Z,67.88
2023-03-02T23:10:22.798Z,61.97
2023-03-02T23:13:36.781Z,64.32
2023-03-02T23:16:39.444Z,50.50
2023-03-02T23:19:41.908Z,54.03
2023-03-02T23:22:45.049Z,59.22
2023-03-02T23:25:47.356Z,60.97
2023-03-02T23:28:51.437Z,59.60
2023-03-02T23:31:54.550Z,63.28
2023-03-02T23:34:57.008Z,64.10
2023-03-02T23:38:01.455Z,58.78
2023-03-02T23:41:04.343Z,59.47
2023-03-02T23:44:13.495Z,60.58
2023-03-02T23:47:15.625Z,52.97
2023-03-02T23:50:17.706Z,55.88
2023-03-02T23:53:20.430Z,57.13
2023-03-02T23:56:23.630Z,49.58
2023-03-02T23:59:28.409Z,59.67
